createdAt,value
2022-09-29T00:00:55.133Z,9.63
2022-09-29T00:03:24.228Z,9.07
2022-09-29T00:05:53.878Z,10.05
2022-09-29T00:08:24.897Z,10.10
2022-09-29T00:10:52.929Z,8.32
2022-09-29T00:13:21.302Z,10.45
2022-09-29T00:15:57.362Z,7.85
2022-09-29T00:18:25.467Z,9.02
2022-09-29T00:21:03.620Z,9.73
2022-09-29T00:23:33.835Z,7.80
2022-09-29T00:26:03.588Z,8.43
2022-09-29T00:28:31.942Z,7.70
2022-09-29T00:31:02.732Z,7.15
2022-09-29T00:33:31.857Z,7.95
2022-09-29T00:36:01.930Z,5.55
2022-09-29T00:38:30.448Z,5.38
2022-09-29T00:41:02.757Z,9.27
2022-09-29T00:43:53.183Z,6.18
2022-09-29T00:46:28.751Z,6.28
2022-09-29T00:48:59.356Z,5.80
2022-09-29T00:51:28.803Z,6.07
2022-09-29T00:53:58.044Z,5.35
2022-09-29T00:56:28.845Z,5.28
2022-09-29T00:59:02.406Z,6.28
2022-09-29T01:01:32.814Z,6.57
2022-09-29T01:04:05.980Z,6.10
2022-09-29T01:06:40.609Z,6.93
2022-09-29T01:09:12.698Z,4.65
2022-09-29T01:11:42.728Z,6.35
2022-09-29T01:14:12.783Z,5.03
2022-09-29T01:16:42.181Z,4.78
2022-09-29T01:19:15.002Z,4.88
2022-09-29T01:21:57.657Z,6.72
2022-09-29T01:24:48.009Z,3.53
2022-09-29T01:27:40.553Z,5.47
2022-09-29T01:30:21.461Z,5.82
2022-09-29T01:33:31.950Z,3.90
2022-09-29T01:36:06.372Z,4.70
2022-09-29T01:39:00.192Z,3.10
2022-09-29T01:41:36.823Z,3.38
2022-09-29T01:44:12.460Z,4.00
2022-09-29T01:46:45.323Z,4.20
2022-09-29T01:49:16.180Z,4.22
2022-09-29T01:51:52.141Z,5.32
2022-09-29T01:54:27.556Z,5.10
2022-09-29T01:57:02.989Z,4.03
2022-09-29T01:59:43.100Z,4.75
2022-09-29T02:02:15.517Z,3.92
2022-09-29T02:04:50.738Z,3.10
2022-09-29T02:07:23.385Z,3.80
2022-09-29T02:09:59.238Z,3.05
2022-09-29T02:12:30.194Z,4.43
2022-09-29T02:14:59.715Z,4.93
2022-09-29T02:17:32.725Z,4.82
2022-09-29T02:20:02.902Z,3.22
2022-09-29T02:22:31.203Z,3.78
2022-09-29T02:25:00.382Z,3.17
2022-09-29T02:27:29.777Z,3.13
2022-09-29T02:29:59.302Z,3.35
2022-09-29T02:32:27.800Z,3.15
2022-09-29T02:34:56.963Z,4.47
2022-09-29T02:37:45.012Z,3.55
2022-09-29T02:40:39.748Z,3.67
2022-09-29T02:43:18.982Z,2.88
2022-09-29T02:45:57.715Z,3.35
2022-09-29T02:48:47.317Z,3.60
2022-09-29T02:54:08.638Z,2.97
2022-09-29T02:56:44.744Z,2.85
2022-09-29T02:59:16.593Z,3.80
2022-09-29T03:01:52.851Z,2.60
2022-09-29T03:04:22.505Z,2.22
2022-09-29T03:06:50.690Z,3.70
2022-09-29T03:09:22.588Z,4.28
2022-09-29T03:11:50.584Z,2.55
2022-09-29T03:14:18.677Z,3.33
2022-09-29T03:16:49.230Z,3.95
2022-09-29T03:19:17.854Z,3.88
2022-09-29T03:21:45.772Z,3.40
2022-09-29T03:24:13.816Z,2.03
2022-09-29T03:26:43.127Z,2.85
2022-09-29T03:29:11.273Z,4.40
2022-09-29T03:31:41.232Z,2.50
2022-09-29T03:34:09.332Z,2.20
2022-09-29T03:36:37.226Z,4.07
2022-09-29T03:39:05.270Z,1.85
2022-09-29T03:41:33.214Z,3.10
2022-09-29T03:44:02.861Z,3.67
2022-09-29T03:46:30.800Z,2.50
2022-09-29T03:48:58.786Z,4.70
2022-09-29T03:51:26.729Z,2.53
2022-09-29T03:53:55.463Z,2.70
2022-09-29T03:56:23.777Z,2.10
2022-09-29T03:58:52.125Z,2.60
2022-09-29T04:01:22.095Z,2.40
2022-09-29T04:03:50.290Z,3.85
2022-09-29T04:06:18.622Z,2.47
2022-09-29T04:08:46.610Z,2.50
2022-09-29T04:11:14.502Z,2.20
2022-09-29T04:13:42.671Z,2.38
2022-09-29T04:16:10.654Z,2.28
2022-09-29T04:18:40.155Z,1.98
2022-09-29T04:21:09.471Z,1.70
2022-09-29T04:23:38.547Z,2.25
2022-09-29T04:26:06.977Z,2.13
2022-09-29T04:28:37.604Z,2.90
2022-09-29T04:31:06.624Z,2.20
2022-09-29T04:33:34.605Z,2.67
2022-09-29T04:36:04.414Z,2.63
2022-09-29T04:38:32.574Z,2.70
2022-09-29T04:41:05.404Z,1.80
2022-09-29T04:43:33.416Z,2.08
2022-09-29T04:46:07.370Z,2.17
2022-09-29T04:48:37.887Z,3.03
2022-09-29T04:51:10.363Z,2.55
2022-09-29T04:56:07.620Z,1.80
2022-09-29T04:58:35.774Z,1.80
2022-09-29T05:01:12.904Z,1.85
2022-09-29T05:03:41.018Z,1.88
2022-09-29T05:06:11.325Z,2.40
2022-09-29T05:08:39.334Z,2.30
2022-09-29T05:11:08.303Z,2.47
2022-09-29T05:13:36.905Z,1.92
2022-09-29T05:16:06.209Z,2.53
2022-09-29T05:18:34.733Z,2.83
2022-09-29T05:21:26.423Z,1.80
2022-09-29T05:23:56.049Z,1.92
2022-09-29T05:26:24.002Z,2.65
2022-09-29T05:28:51.890Z,2.15
2022-09-29T05:31:20.243Z,2.05
2022-09-29T05:33:48.434Z,1.90
2022-09-29T05:36:16.845Z,1.83
2022-09-29T05:38:44.777Z,1.95
2022-09-29T05:41:16.289Z,2.33
2022-09-29T05:43:44.261Z,1.83
2022-09-29T05:46:12.341Z,1.92
2022-09-29T05:48:40.401Z,1.80
2022-09-29T05:51:10.529Z,2.25
2022-09-29T05:53:38.998Z,1.88
2022-09-29T05:56:08.066Z,1.98
2022-09-29T05:58:38.017Z,1.90
2022-09-29T06:01:10.391Z,1.95
2022-09-29T06:03:38.687Z,2.03
2022-09-29T06:06:10.291Z,2.00
2022-09-29T06:08:40.664Z,1.77
2022-09-29T06:11:10.932Z,2.40
2022-09-29T06:13:41.250Z,4.18
2022-09-29T06:16:09.341Z,2.83
2022-09-29T06:18:37.804Z,2.17
2022-09-29T06:21:07.733Z,5.40
2022-09-29T06:23:36.254Z,5.18
2022-09-29T06:26:10.441Z,3.53
2022-09-29T06:28:38.455Z,2.50
2022-09-29T06:31:11.721Z,3.30
2022-09-29T06:33:40.117Z,2.85
2022-09-29T06:36:34.098Z,3.83
2022-09-29T06:39:02.431Z,3.45
2022-09-29T06:41:30.345Z,3.67
2022-09-29T06:43:58.887Z,3.05
2022-09-29T06:46:28.325Z,5.05
2022-09-29T06:48:57.255Z,3.15
2022-09-29T06:51:37.727Z,5.13
2022-09-29T06:54:12.053Z,2.75
2022-09-29T06:56:41.086Z,5.30
2022-09-29T06:59:09.304Z,4.40
2022-09-29T07:01:38.741Z,2.50
2022-09-29T07:04:06.789Z,4.70
2022-09-29T07:06:35.608Z,3.47
2022-09-29T07:09:03.884Z,3.45
2022-09-29T07:11:31.861Z,2.47
2022-09-29T07:13:59.816Z,3.40
2022-09-29T07:16:27.949Z,2.58
2022-09-29T07:18:57.239Z,2.83
2022-09-29T07:21:25.255Z,4.80
2022-09-29T07:23:53.133Z,3.35
2022-09-29T07:26:22.071Z,3.20
2022-09-29T07:28:50.261Z,3.58
2022-09-29T07:31:20.294Z,3.88
2022-09-29T07:33:50.050Z,2.63
2022-09-29T07:36:21.087Z,3.13
2022-09-29T07:38:50.122Z,2.53
2022-09-29T07:41:19.554Z,5.55
2022-09-29T07:43:47.956Z,2.67
2022-09-29T07:46:16.068Z,2.53
2022-09-29T07:48:44.692Z,5.00
2022-09-29T07:51:15.103Z,3.80
2022-09-29T07:53:44.892Z,3.88
2022-09-29T07:56:15.506Z,4.57
2022-09-29T07:58:43.485Z,3.65
2022-09-29T08:01:12.816Z,3.47
2022-09-29T08:03:42.206Z,2.75
2022-09-29T08:06:10.955Z,4.22
2022-09-29T08:08:53.610Z,3.42
2022-09-29T08:11:31.510Z,2.60
2022-09-29T08:14:00.618Z,3.80
2022-09-29T08:16:28.726Z,4.32
2022-09-29T08:18:56.815Z,8.00
2022-09-29T08:21:24.779Z,5.43
2022-09-29T08:23:52.786Z,5.60
2022-09-29T08:26:34.594Z,4.95
2022-09-29T08:29:09.252Z,5.68
2022-09-29T08:31:38.953Z,4.40
2022-09-29T08:34:08.108Z,3.95
2022-09-29T08:36:36.836Z,4.03
2022-09-29T08:39:05.146Z,7.63
2022-09-29T08:41:45.633Z,7.03
2022-09-29T08:44:35.220Z,6.82
2022-09-29T08:47:18.143Z,4.40
2022-09-29T08:49:51.044Z,6.20
2022-09-29T08:52:23.882Z,5.50
2022-09-29T08:54:58.362Z,6.22
2022-09-29T08:57:26.808Z,7.63
2022-09-29T08:59:58.912Z,5.10
2022-09-29T09:02:56.710Z,5.10
2022-09-29T09:05:39.623Z,6.45
2022-09-29T09:08:17.037Z,7.40
2022-09-29T09:10:47.577Z,4.55
2022-09-29T09:13:34.512Z,4.97
2022-09-29T09:16:15.773Z,4.53
2022-09-29T09:19:26.143Z,5.88
2022-09-29T09:22:04.654Z,5.70
2022-09-29T09:24:40.238Z,5.18
2022-09-29T09:27:15.321Z,5.10
2022-09-29T09:29:45.404Z,6.20
2022-09-29T09:32:24.047Z,5.40
2022-09-29T09:34:59.595Z,7.53
2022-09-29T09:37:35.529Z,6.47
2022-09-29T09:40:14.908Z,4.60
2022-09-29T09:42:47.947Z,7.00
2022-09-29T09:45:25.014Z,5.20
2022-09-29T09:48:00.903Z,4.10
2022-09-29T09:50:31.443Z,4.43
2022-09-29T09:53:05.024Z,4.25
2022-09-29T09:55:36.878Z,5.18
2022-09-29T09:58:25.294Z,4.43
2022-09-29T10:00:56.528Z,5.55
2022-09-29T10:03:26.140Z,5.63
2022-09-29T10:05:54.225Z,5.45
2022-09-29T10:08:26.897Z,4.95
2022-09-29T10:10:59.001Z,4.60
2022-09-29T10:13:29.516Z,5.13
2022-09-29T10:16:01.817Z,6.03
2022-09-29T10:18:37.796Z,4.00
2022-09-29T10:21:06.032Z,5.03
2022-09-29T10:23:35.703Z,4.10
2022-09-29T10:26:13.150Z,4.30
2022-09-29T10:28:45.605Z,3.90
2022-09-29T10:31:20.019Z,5.50
2022-09-29T10:33:52.478Z,4.53
2022-09-29T10:36:21.894Z,5.05
2022-09-29T10:38:54.031Z,3.78
2022-09-29T10:41:21.999Z,4.88
2022-09-29T10:43:52.858Z,4.75
2022-09-29T10:46:39.813Z,3.73
2022-09-29T10:49:16.188Z,4.05
2022-09-29T10:51:54.329Z,4.53
2022-09-29T10:54:26.885Z,4.03
2022-09-29T10:56:56.393Z,4.47
2022-09-29T10:59:25.378Z,5.18
2022-09-29T11:01:56.902Z,3.75
2022-09-29T11:04:29.665Z,3.78
2022-09-29T11:07:06.493Z,4.32
2022-09-29T11:09:40.737Z,3.58
2022-09-29T11:12:27.170Z,3.95
2022-09-29T11:14:55.137Z,3.75
2022-09-29T11:17:25.546Z,4.45
2022-09-29T11:19:58.247Z,4.28
2022-09-29T11:23:07.699Z,4.88
2022-09-29T11:25:57.450Z,3.42
2022-09-29T11:28:49.900Z,3.28
2022-09-29T11:31:33.894Z,3.40
2022-09-29T11:34:21.568Z,3.55
2022-09-29T11:39:45.894Z,4.70
2022-09-29T11:42:42.035Z,3.53
2022-09-29T11:48:30.651Z,2.80
2022-09-29T11:51:07.096Z,3.80
2022-09-29T11:53:53.277Z,3.15
2022-09-29T11:56:32.199Z,3.05
2022-09-29T11:59:27.740Z,3.33
2022-09-29T12:02:20.490Z,2.92
2022-09-29T12:04:57.718Z,5.95
2022-09-29T12:07:37.944Z,4.85
2022-09-29T12:10:26.334Z,3.35
2022-09-29T12:13:04.533Z,4.32
2022-09-29T12:15:42.637Z,3.88
2022-09-29T12:18:20.982Z,5.40
2022-09-29T12:20:53.921Z,8.60
2022-09-29T12:23:25.385Z,7.13
2022-09-29T12:26:00.245Z,3.67
2022-09-29T12:28:33.551Z,3.05
2022-09-29T12:31:06.050Z,3.47
2022-09-29T12:33:40.887Z,3.92
2022-09-29T12:36:38.329Z,4.40
2022-09-29T12:39:18.712Z,3.80
2022-09-29T12:41:54.295Z,2.92
2022-09-29T12:44:29.552Z,3.78
2022-09-29T12:47:04.242Z,2.47
2022-09-29T12:49:48.315Z,3.08
2022-09-29T12:52:21.757Z,2.53
2022-09-29T12:54:55.367Z,2.65
2022-09-29T12:57:29.010Z,2.55
2022-09-29T13:00:03.231Z,3.22
2022-09-29T13:02:50.426Z,2.60
2022-09-29T13:05:30.301Z,4.20
2022-09-29T13:08:19.444Z,3.58
2022-09-29T13:11:04.653Z,2.13
2022-09-29T13:14:06.856Z,3.28
2022-09-29T13:16:53.054Z,3.40
2022-09-29T13:19:56.921Z,2.58
2022-09-29T13:22:47.963Z,2.42
2022-09-29T13:25:24.333Z,4.50
2022-09-29T13:27:55.751Z,2.92
2022-09-29T13:30:28.977Z,4.10
2022-09-29T13:33:09.755Z,5.93
2022-09-29T13:35:42.581Z,3.75
2022-09-29T13:38:17.774Z,4.53
2022-09-29T13:41:12.317Z,4.60
2022-09-29T13:44:01.887Z,2.90
2022-09-29T13:46:39.011Z,2.50
2022-09-29T13:49:16.308Z,3.08
2022-09-29T13:51:47.928Z,2.08
2022-09-29T13:54:29.722Z,4.28
2022-09-29T13:57:28.955Z,8.37
2022-09-29T14:00:25.742Z,2.80
2022-09-29T14:03:23.271Z,3.58
2022-09-29T14:05:57.373Z,2.22
2022-09-29T14:08:40.274Z,1.85
2022-09-29T14:11:24.270Z,1.88
2022-09-29T14:13:59.527Z,2.38
2022-09-29T14:16:53.742Z,3.20
2022-09-29T14:19:37.000Z,2.15
2022-09-29T14:22:07.100Z,3.40
2022-09-29T14:24:47.258Z,1.60
2022-09-29T14:27:21.725Z,1.75
2022-09-29T14:29:53.119Z,2.85
2022-09-29T14:32:23.403Z,1.50
2022-09-29T14:34:54.390Z,3.38
2022-09-29T14:37:25.885Z,1.88
2022-09-29T14:40:14.278Z,4.43
2022-09-29T14:42:42.251Z,3.30
2022-09-29T14:45:31.717Z,4.47
2022-09-29T14:48:24.165Z,1.67
2022-09-29T14:51:29.116Z,1.60
2022-09-29T14:54:08.442Z,1.45
2022-09-29T14:56:53.196Z,1.63
2022-09-29T14:59:37.080Z,1.70
2022-09-29T15:02:26.876Z,1.85
2022-09-29T15:04:54.924Z,1.50
2022-09-29T15:07:26.470Z,1.30
2022-09-29T15:09:57.022Z,1.92
2022-09-29T15:12:27.449Z,1.95
2022-09-29T15:15:01.511Z,2.70
2022-09-29T15:17:44.538Z,1.45
2022-09-29T15:20:23.211Z,1.48
2022-09-29T15:23:07.661Z,1.83
2022-09-29T15:25:37.472Z,1.73
2022-09-29T15:28:10.900Z,2.22
2022-09-29T15:30:39.738Z,1.60
2022-09-29T15:33:21.517Z,1.38
2022-09-29T15:35:52.755Z,1.40
2022-09-29T15:38:36.421Z,1.58
2022-09-29T15:41:06.741Z,1.90
2022-09-29T15:43:42.222Z,4.60
2022-09-29T15:46:35.926Z,2.08
2022-09-29T15:49:11.934Z,4.30
2022-09-29T15:51:41.487Z,4.10
2022-09-29T15:54:13.686Z,2.95
2022-09-29T15:59:42.631Z,1.95
2022-09-29T16:02:21.165Z,3.17
2022-09-29T16:04:53.605Z,3.80
2022-09-29T16:07:28.102Z,1.33
2022-09-29T16:10:04.436Z,3.60
2022-09-29T16:12:37.758Z,4.60
2022-09-29T16:15:07.087Z,3.15
2022-09-29T16:17:35.188Z,2.15
2022-09-29T16:20:04.418Z,6.00
2022-09-29T16:22:34.727Z,4.35
2022-09-29T16:25:27.813Z,4.55
2022-09-29T16:27:57.768Z,4.22
2022-09-29T16:30:33.133Z,2.45
2022-09-29T16:33:13.256Z,3.65
2022-09-29T16:35:50.765Z,5.20
2022-09-29T16:38:35.660Z,7.32
2022-09-29T16:41:20.503Z,5.60
2022-09-29T16:43:48.994Z,4.00
2022-09-29T16:46:20.980Z,7.43
2022-09-29T16:48:50.638Z,2.13
2022-09-29T16:51:38.079Z,4.10
2022-09-29T16:54:16.635Z,2.50
2022-09-29T16:56:48.914Z,3.95
2022-09-29T16:59:21.274Z,3.08
2022-09-29T17:04:17.459Z,9.75
2022-09-29T17:06:48.355Z,5.00
2022-09-29T17:09:21.303Z,5.75
2022-09-29T17:11:50.978Z,5.88
2022-09-29T17:14:21.629Z,3.88
2022-09-29T17:16:51.695Z,8.63
2022-09-29T17:19:22.347Z,5.38
2022-09-29T17:21:50.893Z,5.40
2022-09-29T17:24:18.856Z,8.13
2022-09-29T17:27:05.040Z,8.98
2022-09-29T17:29:36.065Z,5.95
2022-09-29T17:32:13.038Z,6.28
2022-09-29T17:34:40.989Z,5.05
2022-09-29T17:37:11.465Z,4.70
2022-09-29T17:39:39.413Z,6.57
2022-09-29T17:42:08.540Z,7.25
2022-09-29T17:44:39.286Z,4.72
2022-09-29T17:47:26.734Z,6.18
2022-09-29T17:49:55.217Z,4.53
2022-09-29T17:52:23.211Z,6.13
2022-09-29T17:54:51.214Z,7.55
2022-09-29T17:57:24.913Z,5.82
2022-09-29T17:59:55.033Z,10.15
2022-09-29T18:02:24.194Z,4.03
2022-09-29T18:04:54.337Z,5.80
2022-09-29T18:07:22.308Z,5.88
2022-09-29T18:09:52.720Z,3.10
2022-09-29T18:12:20.613Z,3.85
2022-09-29T18:14:48.541Z,4.50
2022-09-29T18:17:18.020Z,3.38
2022-09-29T18:19:48.942Z,3.25
2022-09-29T18:22:17.509Z,3.75
2022-09-29T18:24:45.423Z,5.53
2022-09-29T18:27:14.877Z,6.88
2022-09-29T18:29:42.940Z,3.38
2022-09-29T18:32:16.794Z,3.78
2022-09-29T18:34:46.092Z,3.03
2022-09-29T18:37:14.107Z,8.88
2022-09-29T18:39:42.035Z,5.40
2022-09-29T18:42:11.168Z,5.22
2022-09-29T18:44:39.150Z,4.32
2022-09-29T18:47:07.071Z,4.63
2022-09-29T18:49:35.000Z,3.55
2022-09-29T18:52:04.440Z,2.92
2022-09-29T18:54:33.443Z,8.90
2022-09-29T18:57:01.575Z,3.08
2022-09-29T18:59:29.752Z,4.22
2022-09-29T19:01:57.819Z,5.40
2022-09-29T19:04:25.851Z,4.20
2022-09-29T19:06:53.717Z,4.55
2022-09-29T19:09:23.285Z,3.42
2022-09-29T19:11:51.313Z,5.10
2022-09-29T19:14:19.240Z,4.20
2022-09-29T19:16:48.459Z,5.28
2022-09-29T19:19:16.481Z,4.80
2022-09-29T19:21:44.600Z,5.13
2022-09-29T19:24:12.443Z,2.95
2022-09-29T19:26:41.794Z,5.85
2022-09-29T19:29:09.957Z,4.00
2022-09-29T19:31:38.024Z,7.10
2022-09-29T19:34:06.053Z,3.83
2022-09-29T19:36:34.805Z,4.55
2022-09-29T19:39:04.348Z,4.57
2022-09-29T19:41:32.335Z,5.47
2022-09-29T19:44:01.939Z,5.57
2022-09-29T19:46:29.887Z,4.65
2022-09-29T19:48:57.927Z,5.57
2022-09-29T19:51:47.257Z,3.40
2022-09-29T19:54:17.167Z,4.53
2022-09-29T19:56:48.413Z,4.90
2022-09-29T19:59:19.726Z,3.42
2022-09-29T20:01:50.240Z,4.70
2022-09-29T20:04:19.859Z,4.22
2022-09-29T20:06:48.308Z,5.38
2022-09-29T20:09:17.285Z,5.97
2022-09-29T20:11:47.097Z,3.78
2022-09-29T20:14:18.684Z,5.70
2022-09-29T20:16:47.594Z,4.05
2022-09-29T20:19:18.777Z,5.20
2022-09-29T20:21:49.085Z,7.20
2022-09-29T20:24:18.546Z,3.47
2022-09-29T20:26:48.610Z,4.50
2022-09-29T20:29:21.052Z,3.95
2022-09-29T20:31:49.094Z,4.30
2022-09-29T20:34:20.931Z,6.93
2022-09-29T20:36:54.207Z,3.72
2022-09-29T20:39:24.613Z,5.20
2022-09-29T20:41:54.013Z,4.10
2022-09-29T20:44:25.713Z,6.55
2022-09-29T20:46:54.737Z,19.33
2022-09-29T20:49:22.717Z,19.83
2022-09-29T20:51:51.668Z,21.55
2022-09-29T20:54:20.806Z,18.48
2022-09-29T20:56:50.940Z,23.73
2022-09-29T20:59:21.209Z,19.52
2022-09-29T21:01:52.309Z,21.75
2022-09-29T21:04:21.841Z,24.50
2022-09-29T21:06:51.977Z,18.30
2022-09-29T21:09:22.351Z,17.40
2022-09-29T21:11:51.323Z,17.80
2022-09-29T21:14:21.279Z,20.10
2022-09-29T21:16:53.017Z,23.23
2022-09-29T21:19:26.167Z,16.45
2022-09-29T21:21:54.475Z,17.63
2022-09-29T21:24:22.536Z,20.35
2022-09-29T21:26:52.859Z,22.40
2022-09-29T21:29:21.509Z,17.70
2022-09-29T21:31:51.466Z,17.15
2022-09-29T21:34:19.999Z,18.05
2022-09-29T21:36:47.941Z,15.75
2022-09-29T21:39:17.097Z,16.73
2022-09-29T21:41:46.157Z,14.73
2022-09-29T21:44:16.716Z,15.00
2022-09-29T21:46:45.429Z,15.63
2022-09-29T21:49:16.717Z,15.40
2022-09-29T21:51:47.384Z,16.23
2022-09-29T21:54:17.063Z,15.70
2022-09-29T21:56:46.808Z,15.38
2022-09-29T21:59:17.327Z,15.73
2022-09-29T22:01:46.561Z,15.93
2022-09-29T22:04:16.223Z,17.52
2022-09-29T22:06:44.986Z,13.07
2022-09-29T22:09:16.104Z,14.90
2022-09-29T22:11:44.208Z,14.15
2022-09-29T22:14:14.298Z,15.10
2022-09-29T22:16:42.642Z,14.65
2022-09-29T22:19:22.910Z,15.30
2022-09-29T22:22:01.611Z,14.93
2022-09-29T22:24:29.497Z,11.45
2022-09-29T22:26:57.716Z,10.88
2022-09-29T22:29:27.180Z,12.05
2022-09-29T22:31:55.351Z,13.57
2022-09-29T22:34:23.347Z,13.63
2022-09-29T22:36:51.308Z,11.05
2022-09-29T22:39:20.840Z,11.50
2022-09-29T22:41:48.784Z,15.10
2022-09-29T22:44:17.725Z,12.85
2022-09-29T22:46:45.650Z,13.98
2022-09-29T22:49:13.822Z,12.68
2022-09-29T22:51:44.073Z,11.85
2022-09-29T22:54:13.117Z,10.52
2022-09-29T22:56:44.462Z,13.55
2022-09-29T22:59:13.234Z,11.18
2022-09-29T23:01:41.362Z,13.38
2022-09-29T23:04:09.826Z,9.07
2022-09-29T23:06:37.869Z,12.18
2022-09-29T23:09:06.591Z,10.18
2022-09-29T23:11:34.650Z,11.15
2022-09-29T23:14:04.595Z,10.68
2022-09-29T23:16:34.912Z,9.25
2022-09-29T23:19:02.983Z,12.45
2022-09-29T23:21:31.217Z,12.30
2022-09-29T23:24:02.736Z,12.23
2022-09-29T23:26:31.770Z,13.77
2022-09-29T23:29:00.942Z,10.55
2022-09-29T23:31:33.420Z,11.75
2022-09-29T23:34:01.796Z,9.73
2022-09-29T23:36:31.620Z,10.52
2022-09-29T23:39:11.155Z,11.10
2022-09-29T23:41:44.046Z,8.90
2022-09-29T23:44:13.333Z,10.63
2022-09-29T23:46:43.469Z,8.82
2022-09-29T23:49:13.215Z,9.60
2022-09-29T23:51:43.352Z,9.43
2022-09-29T23:54:13.431Z,7.78
2022-09-29T23:56:41.550Z,12.30
2022-09-29T23:59:09.821Z,8.95
